Time;durP1;ratioP1;P1;durP2;ratioP2;P2;SDS_P1;SDS_P2;PMS_P1;PMS_P2;Temp;Humidity;BMP_temperature;BMP_pressure;BME280_temperature;BME280_humidity;BME280_pressure;Samples;Min_cycle;Max_cycle;Signal;HPM_P1;HPM_P2
2022/01/16 00:01:46;;;;;;;12.30;7.00;;;-1.10;99.90;;;;;;4974582;28;20216;-73
2022/01/16 00:04:12;;;;;;;10.90;6.17;;;-1.10;99.90;;;;;;4975824;28;20459;-74
2022/01/16 00:06:39;;;;;;;9.23;6.43;;;-1.20;99.90;;;;;;4973692;28;20199;-73
2022/01/16 00:09:05;;;;;;;9.60;6.50;;;-1.20;99.90;;;;;;4973508;28;20196;-73
2022/01/16 00:11:32;;;;;;;9.50;6.17;;;-1.20;99.90;;;;;;4974446;28;20993;-74
2022/01/16 00:13:57;;;;;;;10.80;6.73;;;-1.20;99.90;;;;;;4972714;28;20209;-72
2022/01/16 00:16:24;;;;;;;11.03;6.50;;;-1.20;99.90;;;;;;4975520;28;20263;-73
2022/01/16 00:18:49;;;;;;;8.87;5.80;;;-1.20;99.90;;;;;;4971391;28;20255;-73
2022/01/16 00:21:27;;;;;;;9.13;6.47;;;-1.20;99.90;;;;;;4972609;28;20556;-75
2022/01/16 00:23:53;;;;;;;8.27;5.63;;;-1.20;99.90;;;;;;4973677;28;20656;-74
2022/01/16 00:26:21;;;;;;;9.93;5.93;;;-1.20;99.90;;;;;;4973280;28;20203;-75
2022/01/16 00:28:49;;;;;;;10.53;6.70;;;-1.20;99.90;;;;;;4958423;28;20200;-76
2022/01/16 00:31:15;;;;;;;10.20;6.63;;;-1.20;99.90;;;;;;4972684;28;20188;-73
2022/01/16 00:33:44;;;;;;;8.77;6.30;;;-1.20;99.90;;;;;;4976236;28;20354;-75
2022/01/16 00:36:11;;;;;;;7.87;5.93;;;-1.20;99.90;;;;;;4977683;28;20274;-76
2022/01/16 00:38:44;;;;;;;11.10;6.43;;;-1.20;99.90;;;;;;4977611;28;20204;-74
2022/01/16 00:41:13;;;;;;;7.70;5.60;;;-1.30;99.90;;;;;;4970948;28;20247;-73
2022/01/16 00:43:40;;;;;;;9.03;5.70;;;-1.30;99.90;;;;;;4972009;28;20200;-73
2022/01/16 00:46:05;;;;;;;9.43;6.30;;;-1.30;99.90;;;;;;4973530;28;20321;-76
2022/01/16 00:48:31;;;;;;;10.40;6.27;;;-1.30;99.90;;;;;;4977162;28;20224;-75
2022/01/16 00:50:57;;;;;;;11.20;6.27;;;-1.40;99.90;;;;;;4973373;28;20184;-74
2022/01/16 00:53:23;;;;;;;12.40;6.77;;;-1.30;99.90;;;;;;4975612;28;20209;-76
2022/01/16 00:55:48;;;;;;;8.97;6.10;;;-1.30;99.90;;;;;;4956939;28;20209;-73
2022/01/16 00:58:14;;;;;;;10.83;6.53;;;-1.30;99.90;;;;;;4973085;28;20302;-74
2022/01/16 01:00:39;;;;;;;10.67;6.67;;;-1.30;99.90;;;;;;4977664;28;20641;-72
2022/01/16 01:03:06;;;;;;;14.30;7.33;;;-1.40;99.90;;;;;;4956740;28;20687;-77
2022/01/16 01:05:33;;;;;;;10.80;6.40;;;-1.40;99.90;;;;;;4974138;28;20558;-74
2022/01/16 01:07:59;;;;;;;12.93;7.10;;;-1.30;99.90;;;;;;4978050;28;20197;-74
2022/01/16 01:10:30;;;;;;;10.47;6.87;;;-1.30;99.90;;;;;;4973450;28;20215;-75
2022/01/16 01:13:07;;;;;;;11.97;6.77;;;-1.40;99.90;;;;;;4975691;28;20248;-76
2022/01/16 01:15:41;;;;;;;10.13;6.20;;;-1.40;99.90;;;;;;4975576;28;20557;-74
2022/01/16 01:18:07;;;;;;;11.17;6.07;;;-1.40;99.90;;;;;;4980831;28;20199;-73
2022/01/16 01:20:33;;;;;;;12.60;6.57;;;-1.40;99.90;;;;;;4973916;28;20597;-74
2022/01/16 01:22:59;;;;;;;10.57;6.50;;;-1.40;99.90;;;;;;4975858;28;20553;-74
2022/01/16 01:25:24;;;;;;;10.87;7.07;;;-1.40;99.90;;;;;;4972241;28;20188;-75
2022/01/16 01:27:51;;;;;;;12.93;6.90;;;-1.40;99.90;;;;;;4974385;28;20303;-73
2022/01/16 01:30:19;;;;;;;13.83;6.90;;;-1.40;99.90;;;;;;4974056;28;20192;-74
2022/01/16 01:32:47;;;;;;;12.77;7.60;;;-1.30;99.90;;;;;;4976246;28;20259;-74
2022/01/16 01:35:14;;;;;;;10.17;6.67;;;-1.30;99.90;;;;;;4978715;28;20191;-73
2022/01/16 01:37:41;;;;;;;11.93;7.40;;;-1.30;99.90;;;;;;4962611;28;20185;-75
2022/01/16 01:40:10;;;;;;;13.27;7.73;;;-1.20;99.90;;;;;;4978968;28;20727;-74
2022/01/16 01:42:44;;;;;;;14.47;8.87;;;-1.10;99.90;;;;;;4980070;28;20208;-74
2022/01/16 01:53:24;;;;;;;15.37;8.90;;;-0.90;99.90;;;;;;4976758;28;20215;-74
2022/01/16 01:55:50;;;;;;;16.43;9.33;;;-0.90;99.90;;;;;;4980985;28;20208;-75
2022/01/16 01:58:16;;;;;;;14.00;8.90;;;-0.80;99.90;;;;;;4979738;28;20204;-75
2022/01/16 02:00:42;;;;;;;14.00;9.00;;;-0.80;99.90;;;;;;4978338;28;20184;-76
2022/01/16 02:05:53;;;;;;;16.60;9.20;;;-0.80;99.90;;;;;;4977137;28;20196;-75
2022/01/16 02:08:19;;;;;;;16.13;9.03;;;-0.80;99.90;;;;;;4976063;28;20185;-73
2022/01/16 02:10:45;;;;;;;14.10;8.97;;;-0.80;99.90;;;;;;4973952;28;20191;-73
2022/01/16 02:13:22;;;;;;;15.90;8.97;;;-0.70;99.90;;;;;;4977665;28;20271;-73
2022/01/16 02:31:45;;;;;;;15.57;8.70;;;-0.70;99.90;;;;;;4975408;28;20648;-73
2022/01/16 02:36:59;;;;;;;14.90;8.60;;;-0.70;99.90;;;;;;4977116;28;20736;-75
2022/01/16 02:39:26;;;;;;;14.17;8.63;;;-0.70;99.90;;;;;;4977191;28;20558;-75
2022/01/16 02:41:54;;;;;;;13.47;8.30;;;-0.70;99.90;;;;;;4978137;28;20610;-75
2022/01/16 02:44:29;;;;;;;14.60;8.30;;;-0.60;99.90;;;;;;4978132;28;20286;-75
2022/01/16 02:46:56;;;;;;;12.83;8.43;;;-0.70;99.90;;;;;;4976578;28;20195;-75
2022/01/16 02:49:24;;;;;;;12.13;8.30;;;-0.60;99.90;;;;;;4979577;28;20212;-75
2022/01/16 02:51:55;;;;;;;13.63;7.87;;;-0.60;99.90;;;;;;4977291;28;20189;-74
2022/01/16 02:54:22;;;;;;;10.53;7.33;;;-0.60;99.90;;;;;;4974310;28;20682;-75
2022/01/16 02:56:48;;;;;;;13.23;7.70;;;-0.60;99.90;;;;;;4975186;28;20232;-75
2022/01/16 02:59:15;;;;;;;13.93;8.17;;;-0.60;99.90;;;;;;4977535;28;20208;-76
2022/01/16 03:01:41;;;;;;;12.40;8.70;;;-0.70;99.90;;;;;;4961511;28;20637;-75
2022/01/16 03:04:07;;;;;;;11.13;7.87;;;-0.70;99.90;;;;;;4977491;28;20209;-75
2022/01/16 03:06:34;;;;;;;11.20;8.03;;;-0.70;99.90;;;;;;4976731;28;20252;-74
2022/01/16 03:08:59;;;;;;;10.90;7.27;;;-0.70;99.90;;;;;;4977172;28;20680;-74
2022/01/16 03:11:35;;;;;;;13.57;7.73;;;-0.70;99.90;;;;;;4979992;28;20215;-74
2022/01/16 03:14:07;;;;;;;13.47;7.73;;;-0.70;99.90;;;;;;4976194;28;20268;-74
2022/01/16 03:16:33;;;;;;;10.97;7.50;;;-0.70;99.90;;;;;;4968676;28;20216;-73
2022/01/16 03:21:54;;;;;;;12.33;7.63;;;-0.80;99.90;;;;;;4976807;28;20560;-74
2022/01/16 03:24:29;;;;;;;11.67;7.10;;;-0.80;99.90;;;;;;4978778;28;20200;-74
2022/01/16 03:26:57;;;;;;;10.20;7.40;;;-0.90;99.90;;;;;;4976412;28;20196;-74
2022/01/16 03:29:25;;;;;;;11.73;7.70;;;-0.90;99.90;;;;;;4975821;28;20192;-75
2022/01/16 03:31:51;;;;;;;11.13;7.67;;;-0.90;99.90;;;;;;4975086;28;20188;-75
2022/01/16 03:34:17;;;;;;;11.00;7.53;;;-1.00;99.90;;;;;;4978109;28;20813;-75
2022/01/16 03:36:43;;;;;;;10.20;7.30;;;-1.00;99.90;;;;;;4976135;28;20213;-76
2022/01/16 03:39:08;;;;;;;13.73;7.47;;;-1.00;99.90;;;;;;4975495;28;20222;-76
2022/01/16 03:41:34;;;;;;;12.23;7.50;;;-1.00;99.90;;;;;;4975110;28;20234;-74
2022/01/16 03:44:02;;;;;;;11.43;7.27;;;-1.00;99.90;;;;;;4973190;28;20274;-76
2022/01/16 03:46:36;;;;;;;11.73;7.27;;;-1.00;99.90;;;;;;4976098;28;20196;-75
2022/01/16 03:49:10;;;;;;;11.07;7.40;;;-1.00;99.90;;;;;;4967850;28;21090;-76
2022/01/16 03:51:38;;;;;;;11.30;7.80;;;-1.00;99.90;;;;;;4978151;28;20184;-75
2022/01/16 03:54:06;;;;;;;13.20;8.70;;;-1.00;99.90;;;;;;4977954;28;20696;-75
2022/01/16 03:56:31;;;;;;;11.50;8.00;;;-1.00;99.90;;;;;;4977789;28;20242;-74
2022/01/16 03:58:57;;;;;;;13.70;8.37;;;-1.00;99.90;;;;;;4976663;28;20599;-75
2022/01/16 04:01:24;;;;;;;11.90;7.67;;;-1.00;99.90;;;;;;4975975;28;20299;-75
2022/01/16 04:03:50;;;;;;;9.63;6.97;;;-1.00;99.90;;;;;;4976779;28;21412;-77
2022/01/16 04:06:17;;;;;;;11.53;7.43;;;-1.00;99.90;;;;;;4957488;28;20670;-75
2022/01/16 04:08:43;;;;;;;11.77;7.30;;;-1.10;99.90;;;;;;4974101;28;20184;-76
2022/01/16 04:11:08;;;;;;;12.87;8.00;;;-1.10;99.90;;;;;;4973998;28;20659;-75
2022/01/16 04:13:34;;;;;;;12.57;7.70;;;-1.10;99.90;;;;;;4978378;28;20216;-75
2022/01/16 04:16:00;;;;;;;9.53;7.27;;;-1.20;99.90;;;;;;4977336;28;20218;-78
2022/01/16 04:18:25;;;;;;;10.13;7.00;;;-1.20;99.90;;;;;;4976177;28;20231;-75
2022/01/16 04:20:51;;;;;;;11.93;7.60;;;-1.10;99.90;;;;;;4975010;28;20286;-73
2022/01/16 04:23:17;;;;;;;14.40;8.87;;;-1.10;99.90;;;;;;4975815;28;20303;-73
2022/01/16 04:25:43;;;;;;;13.77;7.20;;;-1.10;99.90;;;;;;4974636;28;20199;-74
2022/01/16 04:28:09;;;;;;;13.13;7.53;;;-1.20;99.90;;;;;;4973644;28;20200;-75
2022/01/16 04:30:35;;;;;;;10.50;7.57;;;-1.20;99.90;;;;;;4974992;28;20629;-74
2022/01/16 04:33:00;;;;;;;11.40;7.83;;;-1.30;99.90;;;;;;4976682;28;20406;-75
2022/01/16 04:35:26;;;;;;;9.93;7.03;;;-1.30;99.90;;;;;;4971082;28;20310;-73
2022/01/16 04:37:52;;;;;;;11.87;8.10;;;-1.30;99.90;;;;;;4976625;28;20193;-73
2022/01/16 04:40:18;;;;;;;12.87;8.20;;;-1.30;99.90;;;;;;4958045;28;20185;-73
2022/01/16 04:45:28;;;;;;;12.87;7.97;;;-1.20;99.90;;;;;;4972346;28;20644;-74
2022/01/16 04:47:55;;;;;;;10.03;7.23;;;-1.30;99.90;;;;;;4976118;28;20207;-74
2022/01/16 04:50:22;;;;;;;12.00;8.13;;;-1.30;99.90;;;;;;4973770;28;20186;-75
2022/01/16 04:52:48;;;;;;;11.73;7.77;;;-1.10;99.90;;;;;;4978973;28;20657;-76
2022/01/16 04:55:15;;;;;;;10.87;7.63;;;-1.10;99.90;;;;;;4974600;28;20916;-76
2022/01/16 04:57:42;;;;;;;13.03;8.77;;;-1.20;99.90;;;;;;4972715;28;20858;-74
2022/01/16 05:00:14;;;;;;;9.50;6.57;;;-1.10;99.90;;;;;;4973187;28;20264;-77
2022/01/16 05:02:41;;;;;;;13.77;7.77;;;-1.10;99.90;;;;;;4976002;28;20180;-74
2022/01/16 05:05:07;;;;;;;12.50;8.40;;;-1.20;99.90;;;;;;4957828;28;20640;-74
2022/01/16 05:07:33;;;;;;;12.00;8.20;;;-1.10;99.90;;;;;;4974111;28;20274;-74
2022/01/16 05:09:58;;;;;;;13.00;7.93;;;-1.10;99.90;;;;;;4955750;28;20655;-73
2022/01/16 05:12:33;;;;;;;13.27;8.60;;;-1.20;99.90;;;;;;4959592;28;20181;-74
2022/01/16 05:17:43;;;;;;;12.50;8.10;;;-1.20;99.90;;;;;;4976324;28;20191;-74
2022/01/16 05:20:09;;;;;;;13.87;9.00;;;-1.20;99.90;;;;;;4972883;28;20557;-74
2022/01/16 05:22:36;;;;;;;13.73;8.50;;;-1.20;99.90;;;;;;4974939;28;20193;-76
2022/01/16 05:25:04;;;;;;;13.17;7.93;;;-1.20;99.90;;;;;;4973506;28;20201;-73
2022/01/16 05:27:29;;;;;;;13.67;8.23;;;-1.20;99.90;;;;;;4974986;28;20184;-75
2022/01/16 05:29:55;;;;;;;15.10;8.90;;;-1.20;99.90;;;;;;4973392;28;20184;-75
2022/01/16 05:32:20;;;;;;;12.57;8.40;;;-1.10;99.90;;;;;;4975143;28;20208;-76
2022/01/16 05:34:46;;;;;;;13.50;8.70;;;-1.10;99.90;;;;;;4973790;28;20668;-76
2022/01/16 05:37:12;;;;;;;15.57;8.70;;;-1.00;99.90;;;;;;4976748;28;20216;-75
2022/01/16 05:39:39;;;;;;;12.63;8.03;;;-0.90;99.90;;;;;;4975000;28;20191;-76
2022/01/16 05:42:05;;;;;;;11.77;8.00;;;-0.90;99.90;;;;;;4975416;28;20670;-75
2022/01/16 05:44:30;;;;;;;10.97;7.97;;;-0.80;99.90;;;;;;4971077;28;20933;-75
2022/01/16 05:46:56;;;;;;;13.70;8.13;;;-0.70;99.90;;;;;;4974591;28;20264;-75
2022/01/16 05:49:22;;;;;;;12.47;8.03;;;-0.50;99.90;;;;;;4973016;28;20188;-75
2022/01/16 05:51:47;;;;;;;12.80;8.20;;;-0.50;99.90;;;;;;4975859;28;20188;-76
2022/01/16 05:54:13;;;;;;;12.67;7.60;;;-0.30;99.90;;;;;;4951765;28;20214;-75
2022/01/16 05:56:39;;;;;;;12.90;8.03;;;-0.30;99.90;;;;;;4970277;28;20214;-75
2022/01/16 05:59:04;;;;;;;14.73;8.20;;;0.00;99.90;;;;;;4980187;28;20242;-76
2022/01/16 06:01:30;;;;;;;14.83;7.47;;;0.20;99.90;;;;;;4980247;28;20243;-77
2022/01/16 06:03:55;;;;;;;15.30;8.30;;;0.30;99.90;;;;;;4971181;28;20209;-75
2022/01/16 06:06:21;;;;;;;15.10;7.83;;;0.40;99.90;;;;;;4977766;28;20181;-75
2022/01/16 06:08:48;;;;;;;12.03;7.30;;;0.40;99.90;;;;;;4972305;28;20185;-75
2022/01/16 06:11:14;;;;;;;12.40;7.60;;;0.40;99.90;;;;;;4968415;28;20196;-75
2022/01/16 06:13:39;;;;;;;14.73;8.10;;;0.50;99.90;;;;;;4972166;28;20205;-75
2022/01/16 06:16:05;;;;;;;11.63;6.30;;;0.60;99.90;;;;;;4972045;28;20326;-76
2022/01/16 06:18:31;;;;;;;12.03;7.43;;;0.60;99.90;;;;;;4978633;28;20180;-75
2022/01/16 06:20:56;;;;;;;11.57;6.73;;;0.60;99.90;;;;;;4977062;28;20268;-75
2022/01/16 06:23:22;;;;;;;13.40;7.03;;;0.80;99.90;;;;;;4974608;28;20200;-75
2022/01/16 06:25:54;;;;;;;11.10;6.27;;;0.80;99.90;;;;;;4969285;28;20652;-75
2022/01/16 06:28:23;;;;;;;9.60;5.47;;;0.90;99.90;;;;;;4972448;28;20185;-74
2022/01/16 06:30:50;;;;;;;9.63;6.40;;;0.90;99.90;;;;;;4970204;28;20177;-74
2022/01/16 06:33:16;;;;;;;9.80;5.13;;;1.00;99.90;;;;;;4972693;28;20204;-74
2022/01/16 06:35:41;;;;;;;9.20;4.90;;;1.10;99.90;;;;;;4972757;28;20196;-74
2022/01/16 06:38:07;;;;;;;8.00;4.60;;;1.00;99.90;;;;;;4979520;28;20184;-74
2022/01/16 06:40:34;;;;;;;10.37;5.67;;;1.10;99.90;;;;;;4976069;28;20227;-74
2022/01/16 06:42:59;;;;;;;8.57;4.93;;;1.10;99.90;;;;;;4959733;28;20180;-74
2022/01/16 06:45:25;;;;;;;10.17;5.07;;;1.10;99.90;;;;;;4976387;28;20180;-74
2022/01/16 06:47:51;;;;;;;9.40;5.73;;;1.20;99.90;;;;;;4975427;28;20185;-74
2022/01/16 06:50:18;;;;;;;7.87;4.80;;;1.30;99.90;;;;;;4977198;28;20232;-74
2022/01/16 06:52:43;;;;;;;9.00;5.17;;;1.30;99.90;;;;;;4974915;28;20180;-74
2022/01/16 06:55:09;;;;;;;8.37;5.37;;;1.20;99.90;;;;;;4977622;28;20685;-75
2022/01/16 06:57:35;;;;;;;8.23;4.60;;;1.20;99.90;;;;;;4976264;28;20206;-73
2022/01/16 07:00:03;;;;;;;9.13;5.80;;;1.20;99.90;;;;;;4974292;28;20209;-75
2022/01/16 07:02:29;;;;;;;9.07;5.33;;;1.20;99.90;;;;;;4974838;28;20185;-74
2022/01/16 07:04:54;;;;;;;8.73;5.37;;;1.10;99.90;;;;;;4976156;28;20204;-74
2022/01/16 07:07:20;;;;;;;8.83;5.20;;;1.10;99.90;;;;;;4972921;28;20207;-75
2022/01/16 07:09:46;;;;;;;7.63;4.87;;;1.10;99.90;;;;;;4981315;28;20184;-75
2022/01/16 07:12:13;;;;;;;7.80;4.90;;;1.10;99.90;;;;;;4973568;28;20247;-75
2022/01/16 07:14:39;;;;;;;8.23;5.10;;;1.00;99.90;;;;;;4975317;28;20216;-74
2022/01/16 07:17:05;;;;;;;8.40;5.47;;;0.90;99.90;;;;;;4975899;28;20581;-73
2022/01/16 07:19:30;;;;;;;8.73;5.47;;;0.90;99.90;;;;;;4977407;28;20192;-76
2022/01/16 07:21:56;;;;;;;8.40;4.97;;;0.80;99.90;;;;;;4973977;28;20184;-74
2022/01/16 07:24:22;;;;;;;9.20;5.10;;;0.90;99.90;;;;;;4977305;28;20204;-75
2022/01/16 07:26:48;;;;;;;8.80;5.33;;;0.90;99.90;;;;;;4978194;28;20192;-75
2022/01/16 07:29:13;;;;;;;11.80;7.07;;;0.90;99.90;;;;;;4977485;28;20185;-74
2022/01/16 07:31:39;;;;;;;12.60;8.13;;;0.90;99.90;;;;;;4978621;28;20215;-74
2022/01/16 07:34:05;;;;;;;45.93;25.27;;;0.90;99.90;;;;;;4971419;28;20201;-74
2022/01/16 07:36:31;;;;;;;12.93;8.50;;;0.80;99.90;;;;;;4972378;28;20223;-74
2022/01/16 07:38:57;;;;;;;16.23;10.63;;;1.00;99.90;;;;;;4970835;28;20185;-74
2022/01/16 07:41:23;;;;;;;12.23;7.43;;;1.00;99.90;;;;;;4974488;28;20177;-74
2022/01/16 07:43:48;;;;;;;12.57;8.23;;;1.10;99.90;;;;;;4973830;28;20196;-76
2022/01/16 07:46:16;;;;;;;14.20;8.97;;;1.20;99.90;;;;;;4973121;28;20188;-75
2022/01/16 07:48:42;;;;;;;10.57;7.03;;;1.20;99.90;;;;;;4974024;28;20834;-74
2022/01/16 07:51:08;;;;;;;15.20;9.23;;;1.30;99.90;;;;;;4974819;28;20690;-76
2022/01/16 07:53:34;;;;;;;11.97;7.60;;;1.30;99.90;;;;;;4970478;28;20699;-76
2022/01/16 07:55:59;;;;;;;9.17;5.50;;;1.20;99.90;;;;;;4972615;28;21068;-74
2022/01/16 07:58:25;;;;;;;7.30;5.50;;;1.30;99.90;;;;;;4976793;28;20199;-74
2022/01/16 08:00:51;;;;;;;8.80;5.50;;;1.30;99.90;;;;;;4970730;28;20322;-74
2022/01/16 08:03:16;;;;;;;8.40;5.60;;;1.40;99.90;;;;;;4978283;28;20235;-74
2022/01/16 08:05:42;;;;;;;10.60;6.37;;;1.50;99.90;;;;;;4970789;28;20527;-74
2022/01/16 08:08:08;;;;;;;9.93;6.20;;;1.60;99.90;;;;;;4973890;28;20195;-75
2022/01/16 08:10:33;;;;;;;9.17;5.93;;;1.70;99.90;;;;;;4971783;28;20185;-74
2022/01/16 08:12:59;;;;;;;10.07;6.10;;;1.70;99.90;;;;;;4973713;28;20192;-75
2022/01/16 08:15:25;;;;;;;8.90;5.93;;;1.80;99.90;;;;;;4973144;28;20204;-74
2022/01/16 08:17:51;;;;;;;10.50;6.03;;;1.80;99.90;;;;;;4954094;28;20181;-77
2022/01/16 08:20:17;;;;;;;9.03;6.20;;;1.80;99.90;;;;;;4976186;28;20188;-74
2022/01/16 08:22:45;;;;;;;10.07;6.23;;;1.80;99.90;;;;;;4972601;28;20204;-74
2022/01/16 08:25:11;;;;;;;8.33;5.77;;;1.70;99.90;;;;;;4969468;28;20251;-74
2022/01/16 08:27:36;;;;;;;8.60;5.73;;;1.70;99.90;;;;;;4973096;28;20200;-74
2022/01/16 08:30:04;;;;;;;8.30;5.67;;;1.80;99.90;;;;;;4969291;28;20287;-73
2022/01/16 08:32:32;;;;;;;9.43;5.90;;;1.90;99.90;;;;;;4968879;28;20203;-73
2022/01/16 08:34:58;;;;;;;7.90;5.40;;;1.90;99.90;;;;;;4969739;28;20334;-73
2022/01/16 08:37:23;;;;;;;9.70;6.13;;;1.90;99.90;;;;;;4973962;28;20846;-74
2022/01/16 08:39:49;;;;;;;9.67;6.33;;;1.90;99.90;;;;;;4969697;28;20181;-73
2022/01/16 08:42:15;;;;;;;8.03;5.63;;;1.90;99.90;;;;;;4974851;28;20180;-74
2022/01/16 08:44:42;;;;;;;8.80;6.37;;;2.00;99.90;;;;;;4973669;28;20196;-74
2022/01/16 08:47:08;;;;;;;10.70;6.27;;;1.90;99.90;;;;;;4971888;28;20660;-73
2022/01/16 08:49:35;;;;;;;10.90;6.77;;;2.00;99.90;;;;;;4966307;28;20621;-73
2022/01/16 08:52:02;;;;;;;10.83;7.37;;;2.00;99.90;;;;;;4971686;28;20208;-73
2022/01/16 08:54:28;;;;;;;10.97;7.03;;;2.10;99.90;;;;;;4968374;28;20274;-72
2022/01/16 08:56:54;;;;;;;9.90;6.77;;;2.10;99.90;;;;;;4969615;28;20209;-73
2022/01/16 08:59:20;;;;;;;10.27;7.07;;;2.10;99.90;;;;;;4970019;28;20196;-73
2022/01/16 09:01:45;;;;;;;12.07;7.37;;;2.10;99.90;;;;;;4974813;28;20206;-73
2022/01/16 09:04:11;;;;;;;11.77;8.03;;;2.10;99.90;;;;;;4971914;28;20243;-73
2022/01/16 09:06:36;;;;;;;11.13;7.90;;;2.20;99.90;;;;;;4975297;28;20188;-73
2022/01/16 09:09:03;;;;;;;14.77;7.67;;;2.10;99.90;;;;;;4972931;28;20191;-73
2022/01/16 09:11:28;;;;;;;12.93;8.70;;;2.10;99.90;;;;;;4970708;28;21196;-72
2022/01/16 09:13:55;;;;;;;12.30;8.83;;;2.10;99.90;;;;;;4972453;28;20212;-76
2022/01/16 09:16:21;;;;;;;12.10;7.97;;;2.20;99.90;;;;;;4955636;28;20223;-73
2022/01/16 09:18:48;;;;;;;13.03;8.73;;;2.10;99.90;;;;;;4968283;28;20578;-73
2022/01/16 09:21:16;;;;;;;11.20;7.93;;;2.20;99.90;;;;;;4963871;28;20616;-74
2022/01/16 09:23:46;;;;;;;13.80;8.03;;;2.20;99.90;;;;;;4973648;28;20208;-72
2022/01/16 09:26:13;;;;;;;10.43;7.30;;;2.30;99.90;;;;;;4973545;28;20212;-75
2022/01/16 09:28:39;;;;;;;13.50;8.73;;;2.30;99.90;;;;;;4967163;28;21151;-72
2022/01/16 09:31:05;;;;;;;13.10;8.27;;;2.20;99.90;;;;;;4971049;28;20283;-73
2022/01/16 09:33:31;;;;;;;12.13;8.77;;;2.30;99.90;;;;;;4956843;28;20322;-72
2022/01/16 09:35:56;;;;;;;13.27;8.90;;;2.30;99.90;;;;;;4949986;28;20236;-73
2022/01/16 09:38:22;;;;;;;16.17;8.97;;;2.30;99.90;;;;;;4976853;28;20176;-72
2022/01/16 09:40:49;;;;;;;13.93;9.57;;;2.30;99.90;;;;;;4974860;28;20177;-72
2022/01/16 09:43:16;;;;;;;15.40;9.53;;;2.30;99.90;;;;;;4968056;28;20211;-73
2022/01/16 09:45:42;;;;;;;13.50;9.40;;;2.30;99.90;;;;;;4968092;28;20208;-72
2022/01/16 09:48:08;;;;;;;15.23;9.83;;;2.30;99.90;;;;;;4969419;28;20180;-72
2022/01/16 09:50:35;;;;;;;14.97;9.47;;;2.30;99.90;;;;;;4966002;28;20616;-72
2022/01/16 09:53:01;;;;;;;16.43;9.97;;;2.40;99.90;;;;;;4952341;28;20189;-73
2022/01/16 09:55:28;;;;;;;15.17;9.47;;;2.30;99.90;;;;;;4971093;28;20637;-72
2022/01/16 09:57:57;;;;;;;14.33;9.40;;;2.30;99.90;;;;;;4956259;28;20195;-73
2022/01/16 10:00:24;;;;;;;16.40;10.67;;;2.30;99.90;;;;;;4964777;28;20351;-73
2022/01/16 10:02:50;;;;;;;17.03;9.50;;;2.40;99.90;;;;;;4964006;28;20196;-73
2022/01/16 10:05:29;;;;;;;14.77;9.23;;;2.40;99.90;;;;;;4971022;28;20248;-73
2022/01/16 10:07:57;;;;;;;15.13;10.13;;;2.40;99.90;;;;;;4973956;28;20195;-72
2022/01/16 10:10:28;;;;;;;15.10;10.10;;;2.50;99.90;;;;;;4972193;28;20224;-72
2022/01/16 10:13:03;;;;;;;14.10;10.07;;;2.50;99.90;;;;;;4969117;28;20188;-73
2022/01/16 10:15:28;;;;;;;15.60;9.47;;;2.50;99.90;;;;;;4969203;28;20193;-73
2022/01/16 10:17:57;;;;;;;18.23;11.10;;;2.50;99.90;;;;;;4978597;28;20562;-76
2022/01/16 10:20:24;;;;;;;15.40;10.13;;;2.50;99.90;;;;;;4970047;28;20672;-74
2022/01/16 10:22:52;;;;;;;16.50;10.00;;;2.60;99.90;;;;;;4977553;28;20196;-73
2022/01/16 10:25:38;;;;;;;15.40;10.10;;;2.60;99.90;;;;;;4975191;28;20185;-73
2022/01/16 10:28:12;;;;;;;17.07;9.83;;;2.60;99.90;;;;;;4970858;28;20266;-73
2022/01/16 10:30:49;;;;;;;14.83;9.90;;;2.60;99.90;;;;;;4966415;28;20188;-74
2022/01/16 10:33:19;;;;;;;15.33;10.47;;;2.70;99.90;;;;;;4974282;28;20294;-74
2022/01/16 10:35:47;;;;;;;16.43;10.23;;;2.60;99.90;;;;;;4968915;28;20201;-75
2022/01/16 10:38:19;;;;;;;17.90;10.50;;;2.60;99.90;;;;;;4964612;28;20180;-74
2022/01/16 10:40:50;;;;;;;18.23;10.80;;;2.70;99.90;;;;;;4973216;28;20184;-74
2022/01/16 10:43:21;;;;;;;19.17;11.23;;;2.70;99.90;;;;;;4972545;28;20252;-72
2022/01/16 10:45:51;;;;;;;18.53;10.60;;;2.70;99.90;;;;;;4971621;28;20219;-73
2022/01/16 10:48:23;;;;;;;19.87;11.27;;;2.70;99.90;;;;;;4971596;28;21481;-75
2022/01/16 10:50:51;;;;;;;24.77;12.20;;;2.70;99.90;;;;;;4974484;28;20215;-73
2022/01/16 10:53:22;;;;;;;19.77;11.10;;;2.70;99.90;;;;;;4972538;28;20894;-74
2022/01/16 10:55:49;;;;;;;18.13;11.43;;;2.70;99.90;;;;;;4973805;28;20258;-77
2022/01/16 10:58:22;;;;;;;19.30;10.63;;;2.80;99.90;;;;;;4972348;28;20224;-74
2022/01/16 11:00:53;;;;;;;21.97;11.27;;;2.80;99.90;;;;;;4971906;28;20173;-75
2022/01/16 11:03:20;;;;;;;20.83;12.00;;;2.80;99.90;;;;;;4970765;28;20279;-77
2022/01/16 11:05:47;;;;;;;18.33;11.57;;;2.90;99.90;;;;;;4969796;28;20191;-75
2022/01/16 11:08:18;;;;;;;18.77;11.33;;;2.80;99.90;;;;;;4974046;28;20256;-72
2022/01/16 11:11:01;;;;;;;20.60;11.90;;;2.90;99.90;;;;;;4965301;28;20914;-73
2022/01/16 11:13:30;;;;;;;20.23;12.87;;;2.90;99.90;;;;;;4972070;28;20676;-73
2022/01/16 11:15:58;;;;;;;21.97;13.10;;;2.90;99.90;;;;;;4972879;28;20302;-74
2022/01/16 11:18:26;;;;;;;21.90;12.57;;;2.90;99.90;;;;;;4976170;28;20274;-73
2022/01/16 11:21:08;;;;;;;18.60;11.23;;;2.90;99.90;;;;;;4966513;28;20656;-73
2022/01/16 11:23:49;;;;;;;19.57;11.17;;;2.90;99.90;;;;;;4972696;28;20287;-73
2022/01/16 11:26:17;;;;;;;22.43;12.73;;;2.90;99.90;;;;;;4972228;28;20184;-75
2022/01/16 11:28:43;;;;;;;20.63;12.10;;;2.90;99.90;;;;;;4974594;28;20260;-73
2022/01/16 11:31:14;;;;;;;25.53;14.63;;;2.90;99.90;;;;;;4971105;28;20228;-74
2022/01/16 11:33:41;;;;;;;18.93;12.80;;;2.90;99.90;;;;;;4964897;28;20200;-73
2022/01/16 11:36:18;;;;;;;22.00;12.10;;;2.90;99.90;;;;;;4974710;28;20216;-74
2022/01/16 11:39:04;;;;;;;23.07;13.43;;;2.90;99.90;;;;;;4969905;28;20263;-74
2022/01/16 11:41:54;;;;;;;22.53;11.20;;;2.90;99.90;;;;;;4970382;28;20188;-75
2022/01/16 11:44:28;;;;;;;23.97;12.50;;;2.90;99.90;;;;;;4976704;28;20200;-75
2022/01/16 11:46:58;;;;;;;22.13;13.30;;;2.90;99.90;;;;;;4965468;28;20531;-74
2022/01/16 11:49:38;;;;;;;22.57;12.13;;;2.90;99.90;;;;;;4966318;28;20188;-74
2022/01/16 11:52:18;;;;;;;21.47;13.03;;;2.90;99.90;;;;;;4971569;28;20189;-73
2022/01/16 11:54:49;;;;;;;22.67;12.70;;;3.00;99.90;;;;;;4965330;28;20736;-76
2022/01/16 11:57:26;;;;;;;23.00;12.87;;;3.00;99.90;;;;;;4969577;28;20840;-75
2022/01/16 12:00:13;;;;;;;21.73;12.50;;;3.00;99.90;;;;;;4969936;28;20742;-75
2022/01/16 12:02:45;;;;;;;19.97;13.23;;;3.10;99.90;;;;;;4972812;28;20621;-74
2022/01/16 12:05:11;;;;;;;20.60;11.87;;;3.10;99.90;;;;;;4972533;28;20203;-73
2022/01/16 12:07:37;;;;;;;19.40;12.17;;;3.00;99.90;;;;;;4974336;28;20180;-73
2022/01/16 12:10:06;;;;;;;22.77;12.27;;;3.00;99.90;;;;;;4973299;28;20769;-73
2022/01/16 12:12:31;;;;;;;22.87;12.10;;;3.00;99.90;;;;;;4971088;28;20181;-73
2022/01/16 12:15:06;;;;;;;23.97;13.90;;;3.10;99.90;;;;;;4971638;28;20522;-74
2022/01/16 12:17:40;;;;;;;23.77;13.83;;;3.00;99.90;;;;;;4970993;28;20398;-73
2022/01/16 12:20:15;;;;;;;20.30;12.10;;;3.10;99.90;;;;;;4969105;28;20323;-74
2022/01/16 12:22:48;;;;;;;21.93;12.73;;;3.10;99.90;;;;;;4972065;28;20643;-73
2022/01/16 12:25:24;;;;;;;19.80;11.97;;;3.10;99.90;;;;;;4967850;28;20185;-75
2022/01/16 12:28:05;;;;;;;20.30;12.03;;;3.20;99.90;;;;;;4969419;28;20278;-76
2022/01/16 12:30:58;;;;;;;21.83;12.93;;;3.20;99.90;;;;;;4968535;28;20193;-76
2022/01/16 12:33:29;;;;;;;19.87;12.60;;;3.20;99.90;;;;;;4972116;28;20762;-75
2022/01/16 12:35:55;;;;;;;21.43;12.73;;;3.20;99.90;;;;;;4969876;28;20692;-73
2022/01/16 12:38:20;;;;;;;21.40;12.87;;;3.20;99.90;;;;;;4969931;28;20280;-73
2022/01/16 12:40:59;;;;;;;23.60;13.10;;;3.30;99.90;;;;;;4967777;28;20684;-72
2022/01/16 12:45:52;;;;;;;21.03;13.13;;;3.30;99.90;;;;;;4967590;28;20708;-73
2022/01/16 12:48:18;;;;;;;22.67;13.20;;;3.30;99.90;;;;;;4972015;28;20239;-73
2022/01/16 12:50:44;;;;;;;22.20;13.77;;;3.30;99.90;;;;;;4971622;28;20196;-75
2022/01/16 12:53:10;;;;;;;22.73;14.37;;;3.40;99.90;;;;;;4966575;28;20282;-73
2022/01/16 12:55:35;;;;;;;25.33;14.07;;;3.40;99.90;;;;;;4970659;28;20746;-75
2022/01/16 12:58:20;;;;;;;23.93;13.97;;;3.40;99.90;;;;;;4969930;28;20201;-76
2022/01/16 13:00:59;;;;;;;25.63;14.07;;;3.40;99.90;;;;;;4969080;28;20729;-78
2022/01/16 13:03:28;;;;;;;23.50;14.30;;;3.50;99.90;;;;;;4965279;28;20231;-74
2022/01/16 13:06:22;;;;;;;21.90;12.90;;;3.50;99.90;;;;;;4968275;28;20197;-74
2022/01/16 13:09:07;;;;;;;22.87;14.23;;;3.50;99.90;;;;;;4968661;28;20449;-73
2022/01/16 13:11:40;;;;;;;23.10;14.30;;;3.50;99.90;;;;;;4968030;28;20290;-74
2022/01/16 13:14:09;;;;;;;25.23;14.30;;;3.60;99.90;;;;;;4974648;28;20315;-75
2022/01/16 13:16:37;;;;;;;24.80;14.83;;;3.50;99.90;;;;;;4970361;28;20213;-73
2022/01/16 13:19:07;;;;;;;25.63;15.40;;;3.60;99.90;;;;;;4971993;28;20197;-74
2022/01/16 13:21:57;;;;;;;24.40;14.77;;;3.60;99.90;;;;;;4971119;28;20176;-73
2022/01/16 13:24:27;;;;;;;26.17;15.00;;;3.70;99.90;;;;;;4964300;28;20204;-74
2022/01/16 13:26:52;;;;;;;29.33;16.47;;;3.70;99.90;;;;;;4978206;28;20250;-73
2022/01/16 13:29:20;;;;;;;28.53;14.87;;;3.70;99.90;;;;;;4975359;28;20664;-75